createdAt,value
2022-12-08T00:02:23.804Z,92.72
2022-12-08T00:05:45.948Z,92.08
2022-12-08T00:09:07.864Z,92.40
2022-12-08T00:12:18.448Z,93.64
2022-12-08T00:15:21.097Z,94.21
2022-12-08T00:18:25.255Z,94.28
2022-12-08T00:21:29.097Z,94.34
2022-12-08T00:24:42.446Z,94.02
2022-12-08T00:27:45.360Z,93.24
2022-12-08T00:30:48.477Z,92.86
2022-12-08T00:33:51.235Z,92.89
2022-12-08T00:36:54.198Z,92.22
2022-12-08T00:39:56.935Z,92.02
2022-12-08T00:43:01.488Z,91.50
2022-12-08T00:46:04.247Z,91.65
2022-12-08T00:49:07.353Z,91.78
2022-12-08T00:52:10.279Z,91.53
2022-12-08T00:55:13.511Z,91.66
2022-12-08T00:58:16.188Z,92.86
2022-12-08T01:01:19.256Z,92.29
2022-12-08T01:04:22.277Z,92.22
2022-12-08T01:07:28.325Z,91.80
2022-12-08T01:10:31.040Z,91.41
2022-12-08T01:13:34.920Z,91.29
2022-12-08T01:16:37.583Z,90.88
2022-12-08T01:19:40.635Z,91.25
2022-12-08T01:22:44.447Z,91.61
2022-12-08T01:25:47.471Z,91.67
2022-12-08T01:28:50.307Z,92.71
2022-12-08T01:31:53.309Z,92.35
2022-12-08T01:34:55.898Z,93.39
2022-12-08T01:37:58.863Z,93.53
2022-12-08T01:41:01.564Z,93.46
2022-12-08T01:44:16.443Z,95.23
2022-12-08T01:47:21.448Z,94.14
2022-12-08T01:50:25.399Z,94.05
2022-12-08T01:53:32.962Z,93.94
2022-12-08T01:57:01.295Z,93.32
2022-12-08T02:00:11.535Z,92.72
2022-12-08T02:03:21.437Z,92.68
2022-12-08T02:06:26.384Z,92.99
2022-12-08T02:09:29.443Z,92.81
2022-12-08T02:12:32.283Z,91.71
2022-12-08T02:16:10.679Z,90.76
2022-12-08T02:19:30.821Z,90.98
2022-12-08T02:22:45.618Z,90.58
2022-12-08T02:26:16.043Z,90.45
2022-12-08T02:29:28.125Z,90.34
2022-12-08T02:32:56.363Z,90.04
2022-12-08T02:36:21.357Z,89.81
2022-12-08T02:39:47.133Z,90.85
2022-12-08T02:43:07.848Z,91.93
2022-12-08T02:46:18.114Z,91.99
2022-12-08T02:49:21.723Z,91.65
2022-12-08T02:52:24.432Z,91.63
2022-12-08T02:55:27.472Z,91.37
2022-12-08T02:58:46.620Z,91.21
2022-12-08T03:02:08.104Z,91.14
2022-12-08T03:05:25.617Z,91.16
2022-12-08T03:08:43.888Z,90.74
2022-12-08T03:12:20.811Z,90.70
2022-12-08T03:15:25.262Z,90.41
2022-12-08T03:18:31.568Z,90.19
2022-12-08T03:21:36.389Z,90.11
2022-12-08T03:24:42.617Z,89.98
2022-12-08T03:27:46.436Z,90.43
2022-12-08T03:30:54.079Z,91.34
2022-12-08T03:33:59.652Z,90.96
2022-12-08T03:37:02.692Z,90.74
2022-12-08T03:40:08.069Z,90.86
2022-12-08T03:43:11.913Z,92.23
2022-12-08T03:46:16.580Z,92.10
2022-12-08T03:49:19.257Z,91.38
2022-12-08T03:52:22.246Z,91.03
2022-12-08T03:55:25.052Z,90.91
2022-12-08T03:58:29.897Z,91.79
2022-12-08T04:01:35.692Z,91.62
2022-12-08T04:04:39.698Z,91.30
2022-12-08T04:07:45.270Z,91.75
2022-12-08T04:10:48.320Z,92.14
2022-12-08T04:13:51.026Z,91.94
2022-12-08T04:16:54.138Z,91.93
2022-12-08T04:19:58.011Z,91.81
2022-12-08T04:23:01.002Z,91.45
2022-12-08T04:26:05.693Z,91.17
2022-12-08T04:29:08.783Z,90.71
2022-12-08T04:32:12.423Z,89.96
2022-12-08T04:35:15.569Z,89.18
2022-12-08T04:38:18.263Z,89.07
2022-12-08T04:41:22.478Z,88.98
2022-12-08T04:44:25.082Z,89.56
2022-12-08T04:47:28.105Z,89.24
2022-12-08T04:50:30.741Z,89.41
2022-12-08T04:53:33.902Z,89.36
2022-12-08T04:56:36.976Z,89.51
2022-12-08T04:59:41.276Z,89.46
2022-12-08T05:02:43.959Z,89.68
2022-12-08T05:05:46.950Z,89.00
2022-12-08T05:08:49.532Z,88.99
2022-12-08T05:11:52.576Z,88.73
2022-12-08T05:14:55.206Z,88.98
2022-12-08T05:17:58.211Z,89.05
2022-12-08T05:21:01.068Z,89.50
2022-12-08T05:24:04.350Z,89.49
2022-12-08T05:27:07.162Z,89.48
2022-12-08T05:30:10.449Z,89.49
2022-12-08T05:33:13.846Z,88.94
2022-12-08T05:36:17.466Z,88.53
2022-12-08T05:39:20.120Z,88.11
2022-12-08T05:42:25.168Z,88.38
2022-12-08T05:45:28.058Z,88.90
2022-12-08T05:48:33.612Z,89.42
2022-12-08T05:51:36.303Z,89.50
2022-12-08T05:54:39.371Z,89.11
2022-12-08T05:57:42.034Z,89.50
2022-12-08T06:00:47.448Z,89.70
2022-12-08T06:03:50.994Z,89.68
2022-12-08T06:06:53.800Z,89.64
2022-12-08T06:09:56.806Z,89.90
2022-12-08T06:12:59.621Z,90.01
2022-12-08T06:16:08.686Z,89.68
2022-12-08T06:19:12.472Z,89.54
2022-12-08T06:22:15.535Z,89.60
2022-12-08T06:25:18.359Z,89.48
2022-12-08T06:28:21.293Z,89.11
2022-12-08T06:31:26.733Z,88.17
2022-12-08T06:34:29.703Z,87.94
2022-12-08T06:37:32.518Z,88.67
2022-12-08T06:40:35.500Z,89.11
2022-12-08T06:43:38.705Z,89.46
2022-12-08T06:46:42.001Z,89.64
2022-12-08T06:49:44.765Z,89.46
2022-12-08T06:52:59.577Z,90.24
2022-12-08T06:56:08.187Z,90.97
2022-12-08T06:59:11.262Z,91.20
2022-12-08T07:02:14.147Z,91.24
2022-12-08T07:05:17.400Z,92.11
2022-12-08T07:08:20.149Z,91.71
2022-12-08T07:11:23.976Z,91.44
2022-12-08T07:14:26.784Z,90.72
2022-12-08T07:17:29.764Z,90.64
2022-12-08T07:20:32.598Z,90.42
2022-12-08T07:23:36.023Z,90.37
2022-12-08T07:26:40.080Z,90.17
2022-12-08T07:29:43.040Z,90.02
2022-12-08T07:32:46.045Z,90.14
2022-12-08T07:35:59.348Z,89.71
2022-12-08T07:39:04.850Z,89.71
2022-12-08T07:42:07.909Z,89.55
2022-12-08T07:45:12.407Z,88.99
2022-12-08T07:48:17.308Z,88.67
2022-12-08T07:51:20.228Z,87.96
2022-12-08T07:54:23.242Z,87.25
2022-12-08T07:57:26.056Z,87.26
2022-12-08T08:00:29.070Z,87.09
2022-12-08T08:03:32.648Z,86.88
2022-12-08T08:06:36.536Z,86.31
2022-12-08T08:09:39.650Z,85.76
2022-12-08T08:12:42.330Z,85.37
2022-12-08T08:15:45.905Z,85.12
2022-12-08T08:18:50.514Z,84.64
2022-12-08T08:21:53.558Z,84.07
2022-12-08T08:24:56.212Z,84.24
2022-12-08T08:27:59.242Z,83.83
2022-12-08T08:31:02.724Z,82.75
2022-12-08T08:34:06.796Z,83.13
2022-12-08T08:37:09.612Z,81.69
2022-12-08T08:40:12.976Z,82.58
2022-12-08T08:43:32.931Z,81.81
2022-12-08T08:46:40.958Z,81.74
2022-12-08T08:49:43.657Z,80.99
2022-12-08T08:52:46.616Z,80.72
2022-12-08T08:55:49.932Z,80.92
2022-12-08T08:58:54.148Z,80.95
2022-12-08T09:01:56.937Z,81.15
2022-12-08T09:05:00.430Z,81.05
2022-12-08T09:08:03.316Z,80.75
2022-12-08T09:11:06.518Z,80.48
2022-12-08T09:14:12.452Z,80.52
2022-12-08T09:17:15.743Z,79.97
2022-12-08T09:20:18.545Z,79.79
2022-12-08T09:23:23.761Z,79.35
2022-12-08T09:26:28.488Z,77.74
2022-12-08T09:29:36.005Z,77.00
2022-12-08T09:36:03.836Z,76.31
2022-12-08T09:39:07.187Z,75.83
2022-12-08T09:42:10.647Z,76.59
2022-12-08T09:45:15.766Z,76.12
2022-12-08T09:48:45.497Z,75.20
2022-12-08T09:51:48.458Z,74.79
2022-12-08T09:54:51.509Z,74.50
2022-12-08T09:58:03.012Z,73.47
2022-12-08T10:01:10.237Z,72.53
2022-12-08T10:04:35.453Z,72.04
2022-12-08T10:07:58.503Z,71.35
2022-12-08T10:11:12.654Z,70.79
2022-12-08T10:14:44.135Z,69.84
2022-12-08T10:17:50.326Z,68.88
2022-12-08T10:20:53.111Z,69.63
2022-12-08T10:24:04.221Z,69.28
2022-12-08T10:27:12.297Z,68.93
2022-12-08T10:30:18.454Z,69.93
2022-12-08T10:33:22.764Z,69.38
2022-12-08T10:36:58.683Z,68.53
2022-12-08T10:40:17.999Z,68.29
2022-12-08T10:43:26.013Z,67.09
2022-12-08T10:46:30.347Z,67.60
2022-12-08T10:49:36.237Z,65.98
2022-12-08T10:52:42.255Z,66.86
2022-12-08T10:56:07.589Z,66.41
2022-12-08T10:59:17.181Z,67.26
2022-12-08T11:02:20.928Z,67.62
2022-12-08T11:05:27.977Z,67.72
2022-12-08T11:08:31.121Z,67.21
2022-12-08T11:11:39.856Z,67.60
2022-12-08T11:14:42.864Z,67.28
2022-12-08T11:17:57.402Z,67.62
2022-12-08T11:21:07.712Z,67.73
2022-12-08T11:24:21.872Z,66.41
2022-12-08T11:27:25.002Z,66.57
2022-12-08T11:30:42.445Z,66.80
2022-12-08T11:33:47.523Z,66.48
2022-12-08T11:36:52.685Z,66.43
2022-12-08T11:39:59.518Z,66.16
2022-12-08T11:43:30.211Z,66.23
2022-12-08T11:46:41.299Z,65.84
2022-12-08T11:52:51.788Z,66.50
2022-12-08T11:55:58.699Z,66.79
2022-12-08T11:59:24.171Z,66.59
2022-12-08T12:02:30.086Z,66.62
2022-12-08T12:06:38.179Z,66.87
2022-12-08T12:09:38.221Z,66.90
2022-12-08T12:13:03.065Z,67.58
2022-12-08T12:16:36.669Z,67.25
2022-12-08T12:19:40.453Z,67.52
2022-12-08T12:22:47.348Z,68.29
2022-12-08T12:25:59.285Z,67.60
2022-12-08T12:29:18.818Z,67.38
2022-12-08T12:32:24.766Z,67.18
2022-12-08T12:35:41.323Z,67.15
2022-12-08T12:39:08.720Z,67.31
2022-12-08T12:42:34.032Z,67.45
2022-12-08T12:45:44.028Z,67.00
2022-12-08T12:48:46.745Z,67.39
2022-12-08T12:51:54.659Z,67.46
2022-12-08T12:54:57.225Z,67.08
2022-12-08T12:58:27.738Z,66.78
2022-12-08T13:01:43.670Z,66.74
2022-12-08T13:05:25.243Z,66.06
2022-12-08T13:08:28.614Z,66.24
2022-12-08T13:11:48.048Z,66.01
2022-12-08T13:14:51.871Z,66.17
2022-12-08T13:17:58.232Z,66.73
2022-12-08T13:21:03.919Z,65.96
2022-12-08T13:24:29.439Z,66.02
2022-12-08T13:27:34.321Z,66.48
2022-12-08T13:30:51.787Z,66.39
2022-12-08T13:33:54.719Z,66.35
2022-12-08T13:37:00.522Z,66.62
2022-12-08T13:40:10.851Z,66.77
2022-12-08T13:43:23.364Z,67.42
2022-12-08T13:57:16.685Z,67.12
2022-12-08T14:00:22.391Z,66.32
2022-12-08T14:03:25.491Z,66.30
2022-12-08T14:06:36.494Z,67.50
2022-12-08T14:09:40.741Z,67.22
2022-12-08T14:12:48.200Z,67.40
2022-12-08T14:15:51.207Z,68.52
2022-12-08T14:18:53.874Z,67.90
2022-12-08T14:22:23.165Z,68.71
2022-12-08T14:25:28.407Z,68.92
2022-12-08T14:28:33.696Z,70.10
2022-12-08T14:31:36.573Z,71.05
2022-12-08T14:34:41.187Z,72.08
2022-12-08T14:37:49.410Z,72.29
2022-12-08T14:41:08.079Z,72.11
2022-12-08T14:44:24.956Z,71.59
2022-12-08T14:47:33.007Z,69.90
2022-12-08T14:50:54.368Z,70.36
2022-12-08T14:54:01.267Z,67.61
2022-12-08T14:57:04.639Z,69.93
2022-12-08T15:00:11.481Z,70.71
2022-12-08T15:03:16.790Z,69.49
2022-12-08T15:06:22.945Z,67.96
2022-12-08T15:09:47.352Z,69.25
2022-12-08T15:12:59.640Z,69.60
2022-12-08T15:16:03.012Z,69.59
2022-12-08T15:19:19.879Z,69.84
2022-12-08T15:22:26.907Z,69.97
2022-12-08T15:25:30.193Z,70.85
2022-12-08T15:28:32.915Z,70.37
2022-12-08T15:31:35.971Z,69.99
2022-12-08T15:34:38.863Z,70.00
2022-12-08T15:37:42.794Z,70.80
2022-12-08T15:40:45.443Z,70.53
2022-12-08T15:43:48.488Z,71.02
2022-12-08T15:46:51.326Z,71.81
2022-12-08T15:49:54.655Z,72.29
2022-12-08T15:52:57.377Z,72.88
2022-12-08T15:59:31.595Z,73.33
2022-12-08T16:03:05.137Z,73.87
2022-12-08T16:06:50.808Z,73.48
2022-12-08T16:09:35.588Z,72.96
2022-12-08T16:16:29.060Z,74.15
2022-12-08T16:19:32.414Z,73.06
2022-12-08T16:29:23.388Z,75.86
2022-12-08T16:32:27.937Z,74.89
2022-12-08T16:35:33.600Z,74.81
2022-12-08T16:38:36.875Z,74.16
2022-12-08T16:41:58.360Z,73.25
2022-12-08T16:45:14.809Z,72.92
2022-12-08T16:48:17.494Z,72.31
2022-12-08T16:51:26.629Z,73.33
2022-12-08T16:54:30.119Z,72.34
2022-12-08T16:57:35.141Z,73.89
2022-12-08T17:00:38.455Z,74.39
2022-12-08T17:03:51.781Z,74.47
2022-12-08T17:07:05.763Z,74.30
2022-12-08T17:10:12.254Z,74.44
2022-12-08T17:13:17.517Z,74.42
2022-12-08T17:16:20.866Z,75.94
2022-12-08T17:19:23.564Z,76.17
2022-12-08T17:22:27.050Z,76.42
2022-12-08T17:25:30.398Z,76.14
2022-12-08T17:28:58.971Z,75.96
2022-12-08T17:31:56.713Z,75.68
2022-12-08T17:35:00.389Z,75.16
2022-12-08T17:38:03.281Z,75.13
2022-12-08T17:41:08.416Z,74.74
2022-12-08T17:44:18.631Z,75.29
2022-12-08T17:47:23.205Z,74.80
2022-12-08T17:50:26.088Z,74.21
2022-12-08T17:53:35.786Z,75.59
2022-12-08T17:56:40.932Z,75.66
2022-12-08T17:59:45.821Z,76.60
2022-12-08T18:02:48.789Z,76.47
2022-12-08T18:05:51.768Z,76.52
2022-12-08T18:08:55.777Z,76.45
2022-12-08T18:12:00.991Z,77.03
2022-12-08T18:15:10.682Z,76.30
2022-12-08T18:18:15.904Z,76.22
2022-12-08T18:21:23.396Z,76.33
2022-12-08T18:24:28.296Z,75.83
2022-12-08T18:27:31.342Z,75.10
2022-12-08T18:30:34.483Z,75.11
2022-12-08T18:33:39.811Z,76.75
2022-12-08T18:36:43.077Z,75.87
2022-12-08T18:39:48.067Z,76.57
2022-12-08T18:42:51.852Z,77.13
2022-12-08T18:46:04.599Z,75.81
2022-12-08T18:49:12.342Z,76.46
2022-12-08T18:52:18.971Z,76.91
2022-12-08T18:55:26.866Z,76.59
2022-12-08T18:58:30.206Z,74.48
2022-12-08T19:01:36.729Z,72.32
2022-12-08T19:04:41.171Z,71.10
2022-12-08T19:07:48.988Z,71.30
2022-12-08T19:10:52.731Z,71.01
2022-12-08T19:13:57.650Z,70.25
2022-12-08T19:17:01.906Z,70.03
2022-12-08T19:20:06.441Z,70.39
2022-12-08T19:23:15.846Z,70.33
2022-12-08T19:26:27.291Z,70.19
2022-12-08T19:29:30.769Z,71.11
2022-12-08T19:32:36.140Z,71.13
2022-12-08T19:35:40.800Z,71.15
2022-12-08T19:39:04.662Z,71.57
2022-12-08T19:42:38.796Z,71.64
2022-12-08T19:45:43.791Z,71.56
2022-12-08T19:48:47.515Z,71.68
2022-12-08T19:51:51.993Z,71.93
2022-12-08T19:54:57.987Z,72.30
2022-12-08T19:58:04.456Z,72.66
2022-12-08T20:01:11.395Z,72.63
2022-12-08T20:04:17.069Z,72.95
2022-12-08T20:07:23.030Z,73.22
2022-12-08T20:10:38.882Z,73.00
2022-12-08T20:13:42.327Z,72.91
2022-12-08T20:16:50.079Z,72.70
2022-12-08T20:19:53.724Z,72.75
2022-12-08T20:22:59.398Z,73.08
2022-12-08T20:26:12.344Z,72.86
2022-12-08T20:29:17.761Z,73.08
2022-12-08T20:32:23.231Z,74.22
2022-12-08T20:35:27.734Z,74.05
2022-12-08T20:38:32.525Z,73.87
2022-12-08T20:41:39.228Z,74.46
2022-12-08T20:44:44.996Z,74.35
2022-12-08T20:47:49.154Z,74.56
2022-12-08T20:50:53.456Z,74.23
2022-12-08T20:54:00.209Z,74.18
2022-12-08T20:57:03.903Z,74.48
2022-12-08T21:00:08.359Z,75.19
2022-12-08T21:03:14.320Z,74.55
2022-12-08T21:06:23.641Z,74.40
2022-12-08T21:09:26.515Z,74.93
2022-12-08T21:12:30.687Z,75.52
2022-12-08T21:15:33.847Z,75.26
2022-12-08T21:18:39.708Z,75.54
2022-12-08T21:21:43.026Z,75.92
2022-12-08T21:24:46.093Z,75.52
2022-12-08T21:27:49.928Z,75.63
2022-12-08T21:30:53.380Z,76.22
2022-12-08T21:33:56.381Z,76.28
2022-12-08T21:36:59.967Z,76.85
2022-12-08T21:40:03.397Z,77.33
2022-12-08T21:43:06.963Z,76.98
2022-12-08T21:46:17.348Z,76.31
2022-12-08T21:49:21.190Z,78.00
2022-12-08T21:52:24.494Z,77.51
2022-12-08T21:55:27.706Z,76.99
2022-12-08T21:58:32.759Z,77.05
2022-12-08T22:01:36.113Z,78.09
2022-12-08T22:04:39.719Z,77.54
2022-12-08T22:07:42.604Z,77.69
2022-12-08T22:10:49.046Z,78.06
2022-12-08T22:13:52.086Z,78.37
2022-12-08T22:16:55.193Z,78.49
2022-12-08T22:19:59.449Z,78.83
2022-12-08T22:23:02.721Z,79.53
2022-12-08T22:26:06.700Z,79.06
2022-12-08T22:29:09.968Z,78.44
2022-12-08T22:32:12.900Z,79.60
2022-12-08T22:35:16.019Z,78.90
2022-12-08T22:38:19.121Z,78.65
2022-12-08T22:41:25.471Z,79.11
2022-12-08T22:44:29.340Z,79.17
2022-12-08T22:47:32.408Z,79.74
2022-12-08T22:50:36.001Z,79.70
2022-12-08T22:53:41.860Z,79.96
2022-12-08T22:56:44.958Z,80.23
2022-12-08T22:59:50.447Z,80.51
2022-12-08T23:02:53.470Z,80.78
2022-12-08T23:05:57.526Z,81.04
2022-12-08T23:09:00.669Z,80.89
2022-12-08T23:12:04.912Z,81.07
2022-12-08T23:15:08.244Z,81.16
2022-12-08T23:18:15.834Z,81.79
2022-12-08T23:21:19.845Z,82.10
2022-12-08T23:24:23.110Z,82.71
2022-12-08T23:27:25.791Z,81.91
2022-12-08T23:30:28.941Z,82.14
2022-12-08T23:33:31.836Z,82.21
2022-12-08T23:36:34.768Z,82.25
2022-12-08T23:39:37.641Z,82.45
2022-12-08T23:42:40.619Z,82.33
2022-12-08T23:45:43.406Z,82.53
2022-12-08T23:48:47.022Z,82.90
2022-12-08T23:51:50.867Z,82.22
2022-12-08T23:54:54.778Z,82.71
2022-12-08T23:57:57.437Z,82.80
